sensor_id;sensor_type;location;lat;lon;timestamp;P1;durP1;ratioP1;P2;durP2;ratioP2
24159;SDS011;62385;41.594;23.808;2023-06-22T00:00:54;3.17;;;2.70;;
24159;SDS011;62385;41.594;23.808;2023-06-22T00:03:21;3.70;;;3.03;;
24159;SDS011;62385;41.594;23.808;2023-06-22T00:05:47;3.28;;;2.60;;
24159;SDS011;62385;41.594;23.808;2023-06-22T00:08:32;3.88;;;2.95;;
24159;SDS011;62385;41.594;23.808;2023-06-22T00:10:58;3.22;;;2.13;;
24159;SDS011;62385;41.594;23.808;2023-06-22T00:13:23;3.75;;;2.78;;
24159;SDS011;62385;41.594;23.808;2023-06-22T00:15:49;6.18;;;2.80;;
24159;SDS011;62385;41.594;23.808;2023-06-22T00:18:15;4.63;;;3.05;;
24159;SDS011;62385;41.594;23.808;2023-06-22T00:20:41;3.22;;;2.67;;
24159;SDS011;62385;41.594;23.808;2023-06-22T00:23:07;4.07;;;2.78;;
24159;SDS011;62385;41.594;23.808;2023-06-22T00:25:36;2.65;;;2.42;;
24159;SDS011;62385;41.594;23.808;2023-06-22T00:28:07;3.28;;;2.38;;
24159;SDS011;62385;41.594;23.808;2023-06-22T00:30:34;3.90;;;2.72;;
24159;SDS011;62385;41.594;23.808;2023-06-22T00:33:19;4.55;;;2.85;;
24159;SDS011;62385;41.594;23.808;2023-06-22T00:35:45;3.60;;;2.45;;
24159;SDS011;62385;41.594;23.808;2023-06-22T00:38:10;3.45;;;2.40;;
24159;SDS011;62385;41.594;23.808;2023-06-22T00:40:37;5.55;;;2.88;;
24159;SDS011;62385;41.594;23.808;2023-06-22T00:43:02;4.32;;;2.50;;
24159;SDS011;62385;41.594;23.808;2023-06-22T00:45:30;5.25;;;2.55;;
24159;SDS011;62385;41.594;23.808;2023-06-22T00:47:56;2.65;;;2.45;;
24159;SDS011;62385;41.594;23.808;2023-06-22T00:50:24;2.75;;;2.45;;
24159;SDS011;62385;41.594;23.808;2023-06-22T00:52:52;4.03;;;2.55;;
24159;SDS011;62385;41.594;23.808;2023-06-22T00:55:22;3.30;;;2.88;;
24159;SDS011;62385;41.594;23.808;2023-06-22T00:57:48;3.03;;;2.35;;
24159;SDS011;62385;41.594;23.808;2023-06-22T01:00:14;4.97;;;2.60;;
24159;SDS011;62385;41.594;23.808;2023-06-22T01:02:45;3.15;;;2.38;;
24159;SDS011;62385;41.594;23.808;2023-06-22T01:05:14;5.32;;;2.20;;
24159;SDS011;62385;41.594;23.808;2023-06-22T01:16:22;2.97;;;2.63;;
24159;SDS011;62385;41.594;23.808;2023-06-22T01:18:52;3.45;;;2.33;;
24159;SDS011;62385;41.594;23.808;2023-06-22T01:21:23;3.72;;;2.83;;
24159;SDS011;62385;41.594;23.808;2023-06-22T01:29:36;3.30;;;2.58;;
24159;SDS011;62385;41.594;23.808;2023-06-22T01:32:03;2.58;;;2.17;;
24159;SDS011;62385;41.594;23.808;2023-06-22T01:34:33;3.67;;;2.80;;
24159;SDS011;62385;41.594;23.808;2023-06-22T01:37:02;3.05;;;2.60;;
24159;SDS011;62385;41.594;23.808;2023-06-22T01:39:29;3.80;;;2.30;;
24159;SDS011;62385;41.594;23.808;2023-06-22T01:41:55;3.95;;;2.30;;
24159;SDS011;62385;41.594;23.808;2023-06-22T01:44:22;4.05;;;2.70;;
24159;SDS011;62385;41.594;23.808;2023-06-22T01:46:49;3.28;;;2.70;;
24159;SDS011;62385;41.594;23.808;2023-06-22T01:49:16;3.08;;;2.50;;
24159;SDS011;62385;41.594;23.808;2023-06-22T01:51:41;4.40;;;2.97;;
24159;SDS011;62385;41.594;23.808;2023-06-22T01:54:08;3.90;;;2.95;;
24159;SDS011;62385;41.594;23.808;2023-06-22T01:56:33;3.42;;;2.90;;
24159;SDS011;62385;41.594;23.808;2023-06-22T01:59:05;5.82;;;3.13;;
24159;SDS011;62385;41.594;23.808;2023-06-22T02:01:50;4.55;;;2.83;;
24159;SDS011;62385;41.594;23.808;2023-06-22T02:04:26;4.20;;;2.70;;
24159;SDS011;62385;41.594;23.808;2023-06-22T02:06:58;3.35;;;2.80;;
24159;SDS011;62385;41.594;23.808;2023-06-22T02:09:26;3.13;;;2.10;;
24159;SDS011;62385;41.594;23.808;2023-06-22T02:11:56;3.28;;;2.75;;
24159;SDS011;62385;41.594;23.808;2023-06-22T02:14:23;4.20;;;2.88;;
24159;SDS011;62385;41.594;23.808;2023-06-22T02:16:51;4.00;;;2.85;;
24159;SDS011;62385;41.594;23.808;2023-06-22T02:19:17;3.80;;;3.22;;
24159;SDS011;62385;41.594;23.808;2023-06-22T02:21:49;4.65;;;2.90;;
24159;SDS011;62385;41.594;23.808;2023-06-22T02:24:14;2.85;;;2.42;;
24159;SDS011;62385;41.594;23.808;2023-06-22T02:26:40;4.47;;;2.92;;
24159;SDS011;62385;41.594;23.808;2023-06-22T02:29:09;4.20;;;2.47;;
24159;SDS011;62385;41.594;23.808;2023-06-22T02:31:35;3.17;;;2.47;;
24159;SDS011;62385;41.594;23.808;2023-06-22T02:34:00;3.90;;;2.65;;
24159;SDS011;62385;41.594;23.808;2023-06-22T02:36:27;4.05;;;2.75;;
24159;SDS011;62385;41.594;23.808;2023-06-22T02:38:55;4.40;;;2.65;;
24159;SDS011;62385;41.594;23.808;2023-06-22T02:41:26;4.18;;;2.63;;
24159;SDS011;62385;41.594;23.808;2023-06-22T02:43:55;5.97;;;3.05;;
24159;SDS011;62385;41.594;23.808;2023-06-22T02:46:20;4.20;;;2.33;;
24159;SDS011;62385;41.594;23.808;2023-06-22T02:48:47;6.78;;;2.72;;
24159;SDS011;62385;41.594;23.808;2023-06-22T02:51:13;2.95;;;2.65;;
24159;SDS011;62385;41.594;23.808;2023-06-22T02:53:40;4.95;;;2.60;;
24159;SDS011;62385;41.594;23.808;2023-06-22T02:56:11;3.42;;;2.38;;
24159;SDS011;62385;41.594;23.808;2023-06-22T02:58:38;3.92;;;2.50;;
24159;SDS011;62385;41.594;23.808;2023-06-22T03:01:07;4.95;;;2.78;;
24159;SDS011;62385;41.594;23.808;2023-06-22T03:03:33;4.57;;;2.78;;
24159;SDS011;62385;41.594;23.808;2023-06-22T03:05:59;3.15;;;2.72;;
24159;SDS011;62385;41.594;23.808;2023-06-22T03:08:27;4.45;;;2.85;;
24159;SDS011;62385;41.594;23.808;2023-06-22T03:10:53;2.65;;;2.28;;
24159;SDS011;62385;41.594;23.808;2023-06-22T03:13:19;4.78;;;3.47;;
24159;SDS011;62385;41.594;23.808;2023-06-22T03:16:03;3.60;;;2.53;;
24159;SDS011;62385;41.594;23.808;2023-06-22T03:18:29;4.68;;;3.20;;
24159;SDS011;62385;41.594;23.808;2023-06-22T03:20:54;4.22;;;2.60;;
24159;SDS011;62385;41.594;23.808;2023-06-22T03:23:20;3.10;;;2.78;;
24159;SDS011;62385;41.594;23.808;2023-06-22T03:25:45;5.28;;;2.92;;
24159;SDS011;62385;41.594;23.808;2023-06-22T03:28:12;3.50;;;3.00;;
24159;SDS011;62385;41.594;23.808;2023-06-22T03:30:38;5.85;;;2.92;;
24159;SDS011;62385;41.594;23.808;2023-06-22T03:33:04;3.85;;;2.60;;
24159;SDS011;62385;41.594;23.808;2023-06-22T03:35:29;3.50;;;2.90;;
24159;SDS011;62385;41.594;23.808;2023-06-22T03:37:55;4.18;;;3.15;;
24159;SDS011;62385;41.594;23.808;2023-06-22T03:40:20;4.53;;;3.15;;
24159;SDS011;62385;41.594;23.808;2023-06-22T03:42:47;5.47;;;3.05;;
24159;SDS011;62385;41.594;23.808;2023-06-22T03:45:12;3.70;;;2.75;;
24159;SDS011;62385;41.594;23.808;2023-06-22T03:47:40;4.28;;;2.97;;
24159;SDS011;62385;41.594;23.808;2023-06-22T03:50:06;3.17;;;2.45;;
24159;SDS011;62385;41.594;23.808;2023-06-22T03:52:32;3.65;;;2.72;;
24159;SDS011;62385;41.594;23.808;2023-06-22T03:54:57;5.13;;;3.42;;
24159;SDS011;62385;41.594;23.808;2023-06-22T03:57:24;4.72;;;3.45;;
24159;SDS011;62385;41.594;23.808;2023-06-22T03:59:49;2.92;;;2.53;;
24159;SDS011;62385;41.594;23.808;2023-06-22T04:02:16;5.93;;;3.55;;
24159;SDS011;62385;41.594;23.808;2023-06-22T04:04:41;4.65;;;3.17;;
24159;SDS011;62385;41.594;23.808;2023-06-22T04:07:07;3.60;;;3.10;;
24159;SDS011;62385;41.594;23.808;2023-06-22T04:09:32;3.63;;;3.10;;
24159;SDS011;62385;41.594;23.808;2023-06-22T04:11:58;5.57;;;3.53;;
24159;SDS011;62385;41.594;23.808;2023-06-22T04:14:24;4.30;;;3.22;;
24159;SDS011;62385;41.594;23.808;2023-06-22T04:16:50;4.65;;;3.38;;
24159;SDS011;62385;41.594;23.808;2023-06-22T04:19:16;5.80;;;3.67;;
24159;SDS011;62385;41.594;23.808;2023-06-22T04:21:43;6.10;;;4.22;;
24159;SDS011;62385;41.594;23.808;2023-06-22T04:24:09;4.88;;;2.95;;
24159;SDS011;62385;41.594;23.808;2023-06-22T04:26:36;3.90;;;3.15;;
24159;SDS011;62385;41.594;23.808;2023-06-22T04:29:05;3.80;;;2.70;;
24159;SDS011;62385;41.594;23.808;2023-06-22T04:31:32;4.70;;;3.45;;
24159;SDS011;62385;41.594;23.808;2023-06-22T04:34:05;7.18;;;3.08;;
24159;SDS011;62385;41.594;23.808;2023-06-22T04:36:36;3.45;;;2.72;;
24159;SDS011;62385;41.594;23.808;2023-06-22T04:39:04;3.90;;;3.03;;
24159;SDS011;62385;41.594;23.808;2023-06-22T04:41:31;3.80;;;2.45;;
24159;SDS011;62385;41.594;23.808;2023-06-22T04:44:07;5.05;;;3.05;;
24159;SDS011;62385;41.594;23.808;2023-06-22T04:46:36;4.47;;;2.88;;
24159;SDS011;62385;41.594;23.808;2023-06-22T04:49:07;5.82;;;3.85;;
24159;SDS011;62385;41.594;23.808;2023-06-22T04:51:37;5.35;;;3.72;;
24159;SDS011;62385;41.594;23.808;2023-06-22T04:54:07;3.70;;;2.95;;
24159;SDS011;62385;41.594;23.808;2023-06-22T04:56:34;4.95;;;3.50;;
24159;SDS011;62385;41.594;23.808;2023-06-22T04:59:00;4.63;;;3.92;;
24159;SDS011;62385;41.594;23.808;2023-06-22T05:01:26;5.90;;;3.70;;
24159;SDS011;62385;41.594;23.808;2023-06-22T05:03:52;5.80;;;3.38;;
24159;SDS011;62385;41.594;23.808;2023-06-22T05:06:40;3.83;;;3.05;;
24159;SDS011;62385;41.594;23.808;2023-06-22T05:09:06;5.03;;;3.85;;
24159;SDS011;62385;41.594;23.808;2023-06-22T05:11:32;5.38;;;3.58;;
24159;SDS011;62385;41.594;23.808;2023-06-22T05:13:57;6.97;;;3.85;;
24159;SDS011;62385;41.594;23.808;2023-06-22T05:16:23;3.72;;;3.10;;
24159;SDS011;62385;41.594;23.808;2023-06-22T05:18:53;5.10;;;3.38;;
24159;SDS011;62385;41.594;23.808;2023-06-22T05:21:23;5.47;;;4.05;;
24159;SDS011;62385;41.594;23.808;2023-06-22T05:23:51;6.15;;;4.40;;
24159;SDS011;62385;41.594;23.808;2023-06-22T05:26:18;8.80;;;3.90;;
24159;SDS011;62385;41.594;23.808;2023-06-22T05:28:44;4.10;;;3.28;;
24159;SDS011;62385;41.594;23.808;2023-06-22T05:31:13;5.18;;;4.10;;
24159;SDS011;62385;41.594;23.808;2023-06-22T05:33:41;6.72;;;3.78;;
24159;SDS011;62385;41.594;23.808;2023-06-22T05:36:07;4.90;;;3.72;;
24159;SDS011;62385;41.594;23.808;2023-06-22T05:38:34;4.82;;;4.10;;
24159;SDS011;62385;41.594;23.808;2023-06-22T05:41:00;5.63;;;3.85;;
24159;SDS011;62385;41.594;23.808;2023-06-22T05:43:25;5.57;;;3.88;;
24159;SDS011;62385;41.594;23.808;2023-06-22T05:45:51;4.90;;;3.13;;
24159;SDS011;62385;41.594;23.808;2023-06-22T05:48:35;5.82;;;3.88;;
24159;SDS011;62385;41.594;23.808;2023-06-22T05:51:01;5.40;;;3.90;;
24159;SDS011;62385;41.594;23.808;2023-06-22T05:53:27;7.10;;;4.45;;
24159;SDS011;62385;41.594;23.808;2023-06-22T05:55:56;5.93;;;3.33;;
24159;SDS011;62385;41.594;23.808;2023-06-22T05:58:21;4.35;;;3.38;;
24159;SDS011;62385;41.594;23.808;2023-06-22T06:00:47;4.97;;;3.58;;
24159;SDS011;62385;41.594;23.808;2023-06-22T06:03:13;7.75;;;4.28;;
24159;SDS011;62385;41.594;23.808;2023-06-22T06:06:00;4.00;;;2.63;;
24159;SDS011;62385;41.594;23.808;2023-06-22T06:08:27;5.35;;;3.75;;
24159;SDS011;62385;41.594;23.808;2023-06-22T06:10:54;5.25;;;3.33;;
24159;SDS011;62385;41.594;23.808;2023-06-22T06:13:20;7.30;;;4.22;;
24159;SDS011;62385;41.594;23.808;2023-06-22T06:15:45;4.38;;;3.63;;
24159;SDS011;62385;41.594;23.808;2023-06-22T06:18:11;7.32;;;3.53;;
24159;SDS011;62385;41.594;23.808;2023-06-22T06:20:37;5.57;;;3.72;;
24159;SDS011;62385;41.594;23.808;2023-06-22T06:23:02;5.43;;;3.80;;
24159;SDS011;62385;41.594;23.808;2023-06-22T06:25:28;4.32;;;3.30;;
24159;SDS011;62385;41.594;23.808;2023-06-22T06:27:53;11.68;;;4.22;;
24159;SDS011;62385;41.594;23.808;2023-06-22T06:33:59;4.65;;;2.63;;
24159;SDS011;62385;41.594;23.808;2023-06-22T06:36:25;5.97;;;3.20;;
24159;SDS011;62385;41.594;23.808;2023-06-22T06:38:51;5.57;;;3.80;;
24159;SDS011;62385;41.594;23.808;2023-06-22T06:41:16;4.25;;;3.10;;
24159;SDS011;62385;41.594;23.808;2023-06-22T06:43:42;5.78;;;3.60;;
24159;SDS011;62385;41.594;23.808;2023-06-22T06:46:08;11.40;;;3.60;;
24159;SDS011;62385;41.594;23.808;2023-06-22T06:48:34;5.50;;;3.72;;
24159;SDS011;62385;41.594;23.808;2023-06-22T06:51:01;5.57;;;3.75;;
24159;SDS011;62385;41.594;23.808;2023-06-22T06:53:27;4.50;;;3.17;;
24159;SDS011;62385;41.594;23.808;2023-06-22T06:55:53;5.70;;;3.58;;
24159;SDS011;62385;41.594;23.808;2023-06-22T06:58:19;4.32;;;3.38;;
24159;SDS011;62385;41.594;23.808;2023-06-22T07:00:45;8.15;;;4.25;;
24159;SDS011;62385;41.594;23.808;2023-06-22T07:03:10;6.13;;;3.42;;
24159;SDS011;62385;41.594;23.808;2023-06-22T07:05:37;5.43;;;3.88;;
24159;SDS011;62385;41.594;23.808;2023-06-22T07:08:03;6.88;;;3.00;;
24159;SDS011;62385;41.594;23.808;2023-06-22T07:10:29;4.68;;;4.03;;
24159;SDS011;62385;41.594;23.808;2023-06-22T07:12:54;3.72;;;3.10;;
24159;SDS011;62385;41.594;23.808;2023-06-22T07:15:21;5.13;;;3.92;;
24159;SDS011;62385;41.594;23.808;2023-06-22T07:17:46;4.82;;;3.40;;
24159;SDS011;62385;41.594;23.808;2023-06-22T07:20:12;5.00;;;3.83;;
24159;SDS011;62385;41.594;23.808;2023-06-22T07:22:38;4.97;;;3.67;;
24159;SDS011;62385;41.594;23.808;2023-06-22T07:25:04;5.25;;;3.80;;
24159;SDS011;62385;41.594;23.808;2023-06-22T07:27:37;5.47;;;3.50;;
24159;SDS011;62385;41.594;23.808;2023-06-22T07:30:05;5.22;;;3.15;;
24159;SDS011;62385;41.594;23.808;2023-06-22T07:32:31;4.45;;;3.70;;
24159;SDS011;62385;41.594;23.808;2023-06-22T07:34:58;3.83;;;3.28;;
24159;SDS011;62385;41.594;23.808;2023-06-22T07:37:24;4.47;;;3.55;;
24159;SDS011;62385;41.594;23.808;2023-06-22T07:39:50;6.18;;;3.67;;
24159;SDS011;62385;41.594;23.808;2023-06-22T07:42:18;4.57;;;3.60;;
24159;SDS011;62385;41.594;23.808;2023-06-22T07:44:44;6.45;;;3.47;;
24159;SDS011;62385;41.594;23.808;2023-06-22T07:47:10;4.80;;;3.33;;
24159;SDS011;62385;41.594;23.808;2023-06-22T07:49:36;4.35;;;3.50;;
24159;SDS011;62385;41.594;23.808;2023-06-22T07:52:01;4.28;;;3.78;;
24159;SDS011;62385;41.594;23.808;2023-06-22T07:54:28;5.43;;;3.72;;
24159;SDS011;62385;41.594;23.808;2023-06-22T07:56:54;4.85;;;3.63;;
24159;SDS011;62385;41.594;23.808;2023-06-22T07:59:19;4.07;;;3.10;;
24159;SDS011;62385;41.594;23.808;2023-06-22T08:01:45;5.38;;;3.78;;
24159;SDS011;62385;41.594;23.808;2023-06-22T08:04:11;4.40;;;3.00;;
24159;SDS011;62385;41.594;23.808;2023-06-22T08:06:37;4.25;;;2.90;;
24159;SDS011;62385;41.594;23.808;2023-06-22T08:09:02;4.38;;;2.78;;
24159;SDS011;62385;41.594;23.808;2023-06-22T08:11:28;2.92;;;2.55;;
24159;SDS011;62385;41.594;23.808;2023-06-22T08:13:54;11.38;;;2.88;;
24159;SDS011;62385;41.594;23.808;2023-06-22T08:16:20;5.68;;;3.28;;
24159;SDS011;62385;41.594;23.808;2023-06-22T08:18:46;2.83;;;2.35;;
24159;SDS011;62385;41.594;23.808;2023-06-22T08:21:12;3.58;;;2.70;;
24159;SDS011;62385;41.594;23.808;2023-06-22T08:23:37;3.97;;;2.60;;
24159;SDS011;62385;41.594;23.808;2023-06-22T08:26:03;3.45;;;2.33;;
24159;SDS011;62385;41.594;23.808;2023-06-22T08:28:28;3.60;;;2.70;;
24159;SDS011;62385;41.594;23.808;2023-06-22T08:30:54;3.55;;;2.45;;
24159;SDS011;62385;41.594;23.808;2023-06-22T08:33:20;6.55;;;2.67;;
24159;SDS011;62385;41.594;23.808;2023-06-22T08:35:49;3.30;;;2.50;;
24159;SDS011;62385;41.594;23.808;2023-06-22T08:38:15;3.17;;;2.63;;
24159;SDS011;62385;41.594;23.808;2023-06-22T08:40:43;3.50;;;2.70;;
24159;SDS011;62385;41.594;23.808;2023-06-22T08:43:09;4.18;;;2.70;;
24159;SDS011;62385;41.594;23.808;2023-06-22T08:45:34;3.08;;;2.60;;
24159;SDS011;62385;41.594;23.808;2023-06-22T08:48:01;3.25;;;2.50;;
24159;SDS011;62385;41.594;23.808;2023-06-22T08:50:27;3.53;;;2.47;;
24159;SDS011;62385;41.594;23.808;2023-06-22T08:52:52;3.25;;;2.45;;
24159;SDS011;62385;41.594;23.808;2023-06-22T08:55:18;3.53;;;2.55;;
24159;SDS011;62385;41.594;23.808;2023-06-22T08:57:44;2.92;;;2.38;;
24159;SDS011;62385;41.594;23.808;2023-06-22T09:00:10;5.13;;;2.92;;
24159;SDS011;62385;41.594;23.808;2023-06-22T09:02:44;4.35;;;3.15;;
24159;SDS011;62385;41.594;23.808;2023-06-22T09:05:10;2.95;;;2.38;;
24159;SDS011;62385;41.594;23.808;2023-06-22T09:07:36;1.73;;;1.60;;
24159;SDS011;62385;41.594;23.808;2023-06-22T09:10:02;3.92;;;2.42;;
24159;SDS011;62385;41.594;23.808;2023-06-22T09:12:32;2.40;;;2.20;;
24159;SDS011;62385;41.594;23.808;2023-06-22T09:14:58;3.72;;;2.72;;
24159;SDS011;62385;41.594;23.808;2023-06-22T09:17:26;2.85;;;2.40;;
24159;SDS011;62385;41.594;23.808;2023-06-22T09:19:51;3.08;;;2.35;;
24159;SDS011;62385;41.594;23.808;2023-06-22T09:22:17;4.32;;;3.03;;
24159;SDS011;62385;41.594;23.808;2023-06-22T09:24:43;3.35;;;2.30;;
24159;SDS011;62385;41.594;23.808;2023-06-22T09:27:08;4.03;;;3.00;;
24159;SDS011;62385;41.594;23.808;2023-06-22T09:29:34;4.57;;;2.53;;
24159;SDS011;62385;41.594;23.808;2023-06-22T09:31:59;4.55;;;2.70;;
24159;SDS011;62385;41.594;23.808;2023-06-22T09:34:25;3.35;;;2.30;;
24159;SDS011;62385;41.594;23.808;2023-06-22T09:36:51;2.72;;;2.15;;
24159;SDS011;62385;41.594;23.808;2023-06-22T09:39:17;5.60;;;2.30;;
24159;SDS011;62385;41.594;23.808;2023-06-22T09:42:02;3.58;;;2.20;;
24159;SDS011;62385;41.594;23.808;2023-06-22T09:44:28;2.80;;;2.35;;
24159;SDS011;62385;41.594;23.808;2023-06-22T09:46:54;3.72;;;2.47;;
24159;SDS011;62385;41.594;23.808;2023-06-22T09:49:19;1.77;;;1.40;;
24159;SDS011;62385;41.594;23.808;2023-06-22T09:51:45;2.75;;;1.98;;
24159;SDS011;62385;41.594;23.808;2023-06-22T09:54:10;3.75;;;2.08;;
24159;SDS011;62385;41.594;23.808;2023-06-22T09:56:36;2.85;;;1.55;;
24159;SDS011;62385;41.594;23.808;2023-06-22T09:59:02;2.22;;;1.65;;
24159;SDS011;62385;41.594;23.808;2023-06-22T10:01:28;3.38;;;2.00;;
24159;SDS011;62385;41.594;23.808;2023-06-22T10:03:54;1.80;;;1.67;;
24159;SDS011;62385;41.594;23.808;2023-06-22T10:06:21;1.80;;;1.70;;
24159;SDS011;62385;41.594;23.808;2023-06-22T10:08:47;2.50;;;1.95;;
24159;SDS011;62385;41.594;23.808;2023-06-22T10:11:13;2.20;;;1.92;;
24159;SDS011;62385;41.594;23.808;2023-06-22T10:13:40;1.73;;;1.58;;
24159;SDS011;62385;41.594;23.808;2023-06-22T10:16:06;2.90;;;2.30;;
24159;SDS011;62385;41.594;23.808;2023-06-22T10:18:32;2.20;;;1.75;;
24159;SDS011;62385;41.594;23.808;2023-06-22T10:20:57;2.85;;;2.20;;
24159;SDS011;62385;41.594;23.808;2023-06-22T10:23:24;3.58;;;2.00;;
24159;SDS011;62385;41.594;23.808;2023-06-22T10:25:50;2.25;;;2.03;;
24159;SDS011;62385;41.594;23.808;2023-06-22T10:28:16;3.28;;;2.50;;
24159;SDS011;62385;41.594;23.808;2023-06-22T10:30:42;2.70;;;2.38;;
24159;SDS011;62385;41.594;23.808;2023-06-22T10:33:11;2.63;;;1.85;;
24159;SDS011;62385;41.594;23.808;2023-06-22T10:35:38;2.00;;;1.67;;
24159;SDS011;62385;41.594;23.808;2023-06-22T10:38:04;2.50;;;1.60;;
24159;SDS011;62385;41.594;23.808;2023-06-22T10:40:30;2.47;;;2.28;;
24159;SDS011;62385;41.594;23.808;2023-06-22T10:42:56;2.80;;;2.17;;
24159;SDS011;62385;41.594;23.808;2023-06-22T10:45:21;1.90;;;1.63;;
24159;SDS011;62385;41.594;23.808;2023-06-22T10:47:47;2.50;;;1.70;;
24159;SDS011;62385;41.594;23.808;2023-06-22T10:50:13;2.25;;;1.80;;
24159;SDS011;62385;41.594;23.808;2023-06-22T10:52:38;3.38;;;1.75;;
24159;SDS011;62385;41.594;23.808;2023-06-22T10:55:04;2.60;;;1.98;;
24159;SDS011;62385;41.594;23.808;2023-06-22T10:57:30;2.75;;;2.05;;
24159;SDS011;62385;41.594;23.808;2023-06-22T10:59:57;2.45;;;1.67;;
24159;SDS011;62385;41.594;23.808;2023-06-22T11:02:23;2.13;;;1.45;;
24159;SDS011;62385;41.594;23.808;2023-06-22T11:04:49;2.45;;;1.92;;
24159;SDS011;62385;41.594;23.808;2023-06-22T11:07:15;2.75;;;1.77;;
24159;SDS011;62385;41.594;23.808;2023-06-22T11:09:42;2.30;;;1.95;;
24159;SDS011;62385;41.594;23.808;2023-06-22T11:12:08;2.70;;;2.20;;
24159;SDS011;62385;41.594;23.808;2023-06-22T11:14:35;9.45;;;2.90;;
24159;SDS011;62385;41.594;23.808;2023-06-22T11:17:01;2.38;;;1.98;;
24159;SDS011;62385;41.594;23.808;2023-06-22T11:19:26;1.95;;;1.75;;
24159;SDS011;62385;41.594;23.808;2023-06-22T11:21:52;2.55;;;1.75;;
24159;SDS011;62385;41.594;23.808;2023-06-22T11:24:17;2.53;;;1.92;;
24159;SDS011;62385;41.594;23.808;2023-06-22T11:26:43;2.28;;;2.00;;
24159;SDS011;62385;41.594;23.808;2023-06-22T11:29:09;2.03;;;1.63;;
24159;SDS011;62385;41.594;23.808;2023-06-22T11:31:35;4.32;;;1.52;;
24159;SDS011;62385;41.594;23.808;2023-06-22T11:34:01;1.75;;;1.48;;
24159;SDS011;62385;41.594;23.808;2023-06-22T11:36:27;3.08;;;1.83;;
24159;SDS011;62385;41.594;23.808;2023-06-22T11:38:53;2.88;;;2.00;;
24159;SDS011;62385;41.594;23.808;2023-06-22T11:41:19;2.13;;;1.92;;
24159;SDS011;62385;41.594;23.808;2023-06-22T11:43:45;1.70;;;1.58;;
24159;SDS011;62385;41.594;23.808;2023-06-22T11:46:10;3.22;;;2.08;;
24159;SDS011;62385;41.594;23.808;2023-06-22T11:48:36;2.80;;;2.20;;
24159;SDS011;62385;41.594;23.808;2023-06-22T11:51:02;1.92;;;1.58;;
24159;SDS011;62385;41.594;23.808;2023-06-22T11:53:29;3.08;;;2.08;;
24159;SDS011;62385;41.594;23.808;2023-06-22T11:55:55;2.47;;;1.75;;
24159;SDS011;62385;41.594;23.808;2023-06-22T11:58:22;2.67;;;1.92;;
24159;SDS011;62385;41.594;23.808;2023-06-22T12:00:48;1.42;;;1.30;;
24159;SDS011;62385;41.594;23.808;2023-06-22T12:03:35;1.98;;;1.42;;
24159;SDS011;62385;41.594;23.808;2023-06-22T12:06:01;1.70;;;1.45;;
24159;SDS011;62385;41.594;23.808;2023-06-22T12:08:27;2.85;;;1.60;;
24159;SDS011;62385;41.594;23.808;2023-06-22T12:10:54;1.92;;;1.70;;
24159;SDS011;62385;41.594;23.808;2023-06-22T12:13:19;2.35;;;1.77;;
24159;SDS011;62385;41.594;23.808;2023-06-22T12:15:45;3.40;;;2.22;;
24159;SDS011;62385;41.594;23.808;2023-06-22T12:18:10;2.42;;;1.80;;
24159;SDS011;62385;41.594;23.808;2023-06-22T12:20:36;2.10;;;1.77;;
24159;SDS011;62385;41.594;23.808;2023-06-22T12:23:02;2.00;;;1.48;;
24159;SDS011;62385;41.594;23.808;2023-06-22T12:25:28;1.92;;;1.55;;
24159;SDS011;62385;41.594;23.808;2023-06-22T12:27:53;2.25;;;1.85;;
24159;SDS011;62385;41.594;23.808;2023-06-22T12:30:20;2.05;;;1.67;;
24159;SDS011;62385;41.594;23.808;2023-06-22T12:32:46;3.15;;;2.08;;
24159;SDS011;62385;41.594;23.808;2023-06-22T12:35:12;2.50;;;1.73;;
24159;SDS011;62385;41.594;23.808;2023-06-22T12:37:42;2.58;;;1.88;;
24159;SDS011;62385;41.594;23.808;2023-06-22T12:40:08;1.80;;;1.70;;
24159;SDS011;62385;41.594;23.808;2023-06-22T12:42:34;2.38;;;1.90;;
24159;SDS011;62385;41.594;23.808;2023-06-22T12:45:00;1.73;;;1.40;;
24159;SDS011;62385;41.594;23.808;2023-06-22T12:47:25;3.55;;;2.10;;
24159;SDS011;62385;41.594;23.808;2023-06-22T12:49:51;2.03;;;1.65;;
24159;SDS011;62385;41.594;23.808;2023-06-22T12:52:16;4.00;;;1.90;;
24159;SDS011;62385;41.594;23.808;2023-06-22T12:54:42;2.28;;;1.77;;
24159;SDS011;62385;41.594;23.808;2023-06-22T12:57:07;4.00;;;2.63;;
24159;SDS011;62385;41.594;23.808;2023-06-22T12:59:34;2.85;;;2.15;;
24159;SDS011;62385;41.594;23.808;2023-06-22T13:01:59;2.75;;;2.25;;
24159;SDS011;62385;41.594;23.808;2023-06-22T13:04:25;4.60;;;2.38;;
24159;SDS011;62385;41.594;23.808;2023-06-22T13:06:50;10.05;;;2.15;;
24159;SDS011;62385;41.594;23.808;2023-06-22T13:09:18;3.08;;;2.28;;
24159;SDS011;62385;41.594;23.808;2023-06-22T13:11:44;2.45;;;2.03;;
24159;SDS011;62385;41.594;23.808;2023-06-22T13:14:10;2.33;;;1.92;;
24159;SDS011;62385;41.594;23.808;2023-06-22T13:16:36;2.63;;;2.10;;
24159;SDS011;62385;41.594;23.808;2023-06-22T13:19:01;2.17;;;1.95;;
24159;SDS011;62385;41.594;23.808;2023-06-22T13:21:27;2.38;;;1.73;;
24159;SDS011;62385;41.594;23.808;2023-06-22T13:23:53;2.78;;;2.10;;
24159;SDS011;62385;41.594;23.808;2023-06-22T13:26:18;3.17;;;2.03;;
24159;SDS011;62385;41.594;23.808;2023-06-22T13:28:44;3.35;;;2.30;;
24159;SDS011;62385;41.594;23.808;2023-06-22T13:31:09;2.20;;;1.52;;
24159;SDS011;62385;41.594;23.808;2023-06-22T13:33:37;2.22;;;2.03;;
24159;SDS011;62385;41.594;23.808;2023-06-22T13:36:03;2.90;;;2.53;;
24159;SDS011;62385;41.594;23.808;2023-06-22T13:38:28;2.55;;;1.77;;
24159;SDS011;62385;41.594;23.808;2023-06-22T13:40:55;2.38;;;2.03;;
24159;SDS011;62385;41.594;23.808;2023-06-22T13:43:23;2.78;;;2.13;;
24159;SDS011;62385;41.594;23.808;2023-06-22T13:45:49;3.22;;;2.05;;
24159;SDS011;62385;41.594;23.808;2023-06-22T13:48:15;2.75;;;2.30;;
24159;SDS011;62385;41.594;23.808;2023-06-22T13:50:40;3.67;;;2.25;;
24159;SDS011;62385;41.594;23.808;2023-06-22T13:53:06;2.90;;;1.98;;
24159;SDS011;62385;41.594;23.808;2023-06-22T13:55:31;2.85;;;2.10;;
24159;SDS011;62385;41.594;23.808;2023-06-22T13:58:15;2.47;;;1.90;;
24159;SDS011;62385;41.594;23.808;2023-06-22T14:00:41;3.53;;;2.25;;
24159;SDS011;62385;41.594;23.808;2023-06-22T14:03:07;2.95;;;2.05;;
24159;SDS011;62385;41.594;23.808;2023-06-22T14:05:32;3.95;;;2.30;;
24159;SDS011;62385;41.594;23.808;2023-06-22T14:07:58;3.85;;;2.15;;
24159;SDS011;62385;41.594;23.808;2023-06-22T14:10:23;4.85;;;2.13;;
24159;SDS011;62385;41.594;23.808;2023-06-22T14:12:49;3.88;;;1.90;;
24159;SDS011;62385;41.594;23.808;2023-06-22T14:15:14;2.92;;;2.20;;
24159;SDS011;62385;41.594;23.808;2023-06-22T14:17:40;2.33;;;2.00;;
24159;SDS011;62385;41.594;23.808;2023-06-22T14:20:06;4.82;;;2.50;;
24159;SDS011;62385;41.594;23.808;2023-06-22T14:22:33;3.10;;;2.22;;
24159;SDS011;62385;41.594;23.808;2023-06-22T14:25:00;2.95;;;2.30;;
24159;SDS011;62385;41.594;23.808;2023-06-22T14:27:26;2.38;;;1.98;;
24159;SDS011;62385;41.594;23.808;2023-06-22T14:29:52;2.97;;;1.85;;
24159;SDS011;62385;41.594;23.808;2023-06-22T14:32:18;2.92;;;2.15;;
24159;SDS011;62385;41.594;23.808;2023-06-22T14:34:43;2.50;;;2.30;;
24159;SDS011;62385;41.594;23.808;2023-06-22T14:37:09;10.13;;;2.08;;
24159;SDS011;62385;41.594;23.808;2023-06-22T14:39:35;2.67;;;2.08;;
24159;SDS011;62385;41.594;23.808;2023-06-22T14:42:01;2.33;;;1.88;;
24159;SDS011;62385;41.594;23.808;2023-06-22T14:44:28;2.25;;;1.88;;
24159;SDS011;62385;41.594;23.808;2023-06-22T14:46:56;6.18;;;2.55;;
24159;SDS011;62385;41.594;23.808;2023-06-22T14:49:22;2.83;;;2.30;;